Whiskey Mac — ZNOQ4 — position and weather

sailwx.info

Track history (hours):
 
Tides and Currents Weather Stations Pressure Air Temp Water Temp Dewpoint Dewpoint Depression Visibility Wind Speed Wind Dir Waves Ship Positions

Whiskey Mac

Last reported at 2017-Sep-11 11:08 UTC. Time now 2017-Sep-19 11:49 UTC.
Position N 54°40' W 005°40'.
Warning: this ship's position is 8 days out of date.

Length 13 m.

Type: Sailing vessel. MMSI: 235060898.

Date/timePositionNaut miles runAvg speedWind from/ knotsBaromVisibWave heightAir tempDewpointWater temp
2017-Sep-11 11:08N 54°40' W 005°40'0 0.0
2017-Sep-11 10:39N 54°40' W 005°40'0 0.0
2017-Sep-11 10:30N 54°40' W 005°40'0 0.0
2017-Sep-09 22:24N 54°40' W 005°40'1 3.2
2017-Sep-09 22:00N 54°41' W 005°40'3 6.8
2017-Sep-09 21:30N 54°44' W 005°39'4 7.3
2017-Sep-09 21:00N 54°48' W 005°38'  
2017-Sep-04 09:09N 54°51' W 005°29'1 5.8
2017-Sep-04 08:59N 54°50' W 005°29'3 5.8
2017-Sep-04 08:29N 54°47' W 005°32'3 5.5
2017-Sep-04 08:00N 54°45' W 005°34'3 5.3
2017-Sep-04 07:30N 54°43' W 005°37'3 6.2
2017-Sep-04 07:00N 54°40' W 005°40'1 0.0
2017-Sep-02 14:51N 54°40' W 005°40'1 3.0
2017-Sep-02 14:30N 54°41' W 005°39'2 4.9
2017-Sep-02 14:00N 54°41' W 005°35'2 4.4
2017-Sep-02 13:30N 54°41' W 005°39'1 2.2
2017-Sep-02 12:55N 54°40' W 005°40'0 0.0
2017-Sep-02 12:28N 54°40' W 005°40'  
Track history (hours):
 
Tides and Currents Weather Stations Pressure Air Temp Water Temp Dewpoint Dewpoint Depression Visibility Wind Speed Wind Dir Waves Ship Positions

Whiskey Mac

Last reported at 2017-Sep-11 11:08 UTC. Time now 2017-Sep-19 11:49 UTC.
Position N 54°40' W 005°40'.
Warning: this ship's position is 8 days out of date.

Length 13 m.

Type: Sailing vessel. MMSI: 235060898.

Date/timePositionNaut miles runAvg speedWind from/ knotsBaromVisibWave heightAir tempDewpointWater temp
2017-Sep-11 11:08N 54°40' W 005°40'0 0.0
2017-Sep-11 10:39N 54°40' W 005°40'0 0.0
2017-Sep-11 10:30N 54°40' W 005°40'0 0.0
2017-Sep-09 22:24N 54°40' W 005°40'1 3.2
2017-Sep-09 22:00N 54°41' W 005°40'3 6.8
2017-Sep-09 21:30N 54°44' W 005°39'4 7.3
2017-Sep-09 21:00N 54°48' W 005°38'  
2017-Sep-04 09:09N 54°51' W 005°29'1 5.8
2017-Sep-04 08:59N 54°50' W 005°29'3 5.8
2017-Sep-04 08:29N 54°47' W 005°32'3 5.5
2017-Sep-04 08:00N 54°45' W 005°34'3 5.3
2017-Sep-04 07:30N 54°43' W 005°37'3 6.2
2017-Sep-04 07:00N 54°40' W 005°40'1 0.0
2017-Sep-02 14:51N 54°40' W 005°40'1 3.0
2017-Sep-02 14:30N 54°41' W 005°39'2 4.9
2017-Sep-02 14:00N 54°41' W 005°35'2 4.4
2017-Sep-02 13:30N 54°41' W 005°39'1 2.2
2017-Sep-02 12:55N 54°40' W 005°40'0 0.0
2017-Sep-02 12:28N 54°40' W 005°40'  

Dump ship's entire track history